KCON/CON METAR and TAF weather

Enter ICAO airport designator
Station Type Date Time Source
KCON METAR 2019/08/19 12:02 UTC NOAA

KCON 191202Z AUTO 23005KT 10SM SCT004 22/20 A2997 RMK AO2 T02170200 $


Station Type Date Time Source
KCON Decoded METAR 2019/08/19 12:02 UTC NOAA

Station name not available
Aug 19, 2019 - 08:02 AM EDT / 2019.08.19 1202 UTC
Wind: from the SW (230 degrees) at 6 MPH (5 KT):0
Visibility: 10 mile(s):0
Sky conditions: partly cloudy
Temperature: 71.1 F (21.7 C)
Dew Point: 68.0 F (20.0 C)
Relative Humidity: 90%
Pressure (altimeter): 29.97 in. Hg (1014 hPa)
ob: KCON 191202Z AUTO 23005KT 10SM SCT004 22/20 A2997 RMK AO2 T02170200
cycle: 12

Station Type Date Time Source
KCON TAF 2019/08/19 12:24 UTC NOAA

TAF KCON 191123Z 1912/2012 VRB03KT 1/2SM FG OVC002
TEMPO 1912/1913 1SM BR OVC008
FM191300 22005KT P6SM SCT250
FM191800 23008KT P6SM SCT120 BKN200
FM200000 26005KT P6SM SKC

Example: see airport list